sensor_id;sensor_type;location;lat;lon;timestamp;P1;durP1;ratioP1;P2;durP2;ratioP2
45232;SDS011;30969;51.052;17.056;2023-04-03T00:03:00;7.82;;;2.90;;
45232;SDS011;30969;51.052;17.056;2023-04-03T00:08:04;16.00;;;3.50;;
45232;SDS011;30969;51.052;17.056;2023-04-03T00:13:11;6.22;;;3.15;;
45232;SDS011;30969;51.052;17.056;2023-04-03T00:18:14;5.10;;;2.15;;
45232;SDS011;30969;51.052;17.056;2023-04-03T00:23:18;7.35;;;2.75;;
45232;SDS011;30969;51.052;17.056;2023-04-03T00:28:22;6.63;;;2.65;;
45232;SDS011;30969;51.052;17.056;2023-04-03T00:33:27;8.07;;;2.20;;
45232;SDS011;30969;51.052;17.056;2023-04-03T00:38:30;11.18;;;2.92;;
45232;SDS011;30969;51.052;17.056;2023-04-03T00:43:35;11.70;;;2.75;;
45232;SDS011;30969;51.052;17.056;2023-04-03T00:48:40;9.52;;;2.85;;
45232;SDS011;30969;51.052;17.056;2023-04-03T00:53:46;9.30;;;2.00;;
45232;SDS011;30969;51.052;17.056;2023-04-03T00:58:54;6.05;;;2.25;;
45232;SDS011;30969;51.052;17.056;2023-04-03T01:04:00;8.23;;;2.60;;
45232;SDS011;30969;51.052;17.056;2023-04-03T01:14:33;4.53;;;2.03;;
45232;SDS011;30969;51.052;17.056;2023-04-03T01:19:37;6.53;;;2.33;;
45232;SDS011;30969;51.052;17.056;2023-04-03T01:24:48;6.93;;;1.98;;
45232;SDS011;30969;51.052;17.056;2023-04-03T01:35:28;7.53;;;2.53;;
45232;SDS011;30969;51.052;17.056;2023-04-03T01:40:32;13.50;;;3.88;;
45232;SDS011;30969;51.052;17.056;2023-04-03T01:45:36;7.85;;;2.53;;
45232;SDS011;30969;51.052;17.056;2023-04-03T01:50:41;6.47;;;2.75;;
45232;SDS011;30969;51.052;17.056;2023-04-03T01:55:45;9.27;;;2.80;;
45232;SDS011;30969;51.052;17.056;2023-04-03T02:00:48;4.68;;;2.35;;
45232;SDS011;30969;51.052;17.056;2023-04-03T02:05:53;6.68;;;2.10;;
45232;SDS011;30969;51.052;17.056;2023-04-03T02:10:57;6.32;;;2.25;;
45232;SDS011;30969;51.052;17.056;2023-04-03T02:16:05;9.95;;;2.90;;
45232;SDS011;30969;51.052;17.056;2023-04-03T02:21:11;7.45;;;3.17;;
45232;SDS011;30969;51.052;17.056;2023-04-03T02:26:15;8.75;;;2.88;;
45232;SDS011;30969;51.052;17.056;2023-04-03T02:31:19;4.80;;;2.22;;
45232;SDS011;30969;51.052;17.056;2023-04-03T02:36:24;7.07;;;2.85;;
45232;SDS011;30969;51.052;17.056;2023-04-03T02:47:12;12.63;;;3.10;;
45232;SDS011;30969;51.052;17.056;2023-04-03T02:57:50;8.18;;;2.60;;
45232;SDS011;30969;51.052;17.056;2023-04-03T03:02:54;6.32;;;2.40;;
45232;SDS011;30969;51.052;17.056;2023-04-03T03:07:57;5.85;;;2.30;;
45232;SDS011;30969;51.052;17.056;2023-04-03T03:13:02;8.27;;;2.53;;
45232;SDS011;30969;51.052;17.056;2023-04-03T03:18:05;6.90;;;2.63;;
45232;SDS011;30969;51.052;17.056;2023-04-03T03:23:09;7.90;;;2.80;;
45232;SDS011;30969;51.052;17.056;2023-04-03T03:28:14;5.75;;;2.10;;
45232;SDS011;30969;51.052;17.056;2023-04-03T03:33:17;9.55;;;2.78;;
45232;SDS011;30969;51.052;17.056;2023-04-03T03:38:21;10.32;;;3.20;;
45232;SDS011;30969;51.052;17.056;2023-04-03T03:43:26;8.48;;;3.47;;
45232;SDS011;30969;51.052;17.056;2023-04-03T03:48:30;11.27;;;3.28;;
45232;SDS011;30969;51.052;17.056;2023-04-03T03:53:33;7.78;;;3.58;;
45232;SDS011;30969;51.052;17.056;2023-04-03T03:58:38;9.68;;;5.30;;
45232;SDS011;30969;51.052;17.056;2023-04-03T04:03:42;9.13;;;3.50;;
45232;SDS011;30969;51.052;17.056;2023-04-03T04:08:45;8.68;;;4.25;;
45232;SDS011;30969;51.052;17.056;2023-04-03T04:13:50;9.05;;;3.17;;
45232;SDS011;30969;51.052;17.056;2023-04-03T04:18:54;7.82;;;3.55;;
45232;SDS011;30969;51.052;17.056;2023-04-03T04:23:57;8.13;;;4.10;;
45232;SDS011;30969;51.052;17.056;2023-04-03T04:29:02;7.00;;;3.53;;
45232;SDS011;30969;51.052;17.056;2023-04-03T04:34:06;9.85;;;3.63;;
45232;SDS011;30969;51.052;17.056;2023-04-03T04:39:09;10.23;;;4.15;;
45232;SDS011;30969;51.052;17.056;2023-04-03T04:44:14;10.02;;;3.88;;
45232;SDS011;30969;51.052;17.056;2023-04-03T04:49:18;7.05;;;3.75;;
45232;SDS011;30969;51.052;17.056;2023-04-03T04:54:21;7.78;;;3.30;;
45232;SDS011;30969;51.052;17.056;2023-04-03T04:59:26;9.07;;;3.33;;
45232;SDS011;30969;51.052;17.056;2023-04-03T05:04:30;5.40;;;3.10;;
45232;SDS011;30969;51.052;17.056;2023-04-03T05:09:35;7.13;;;3.00;;
45232;SDS011;30969;51.052;17.056;2023-04-03T05:14:39;11.40;;;2.85;;
45232;SDS011;30969;51.052;17.056;2023-04-03T05:19:43;10.00;;;3.05;;
45232;SDS011;30969;51.052;17.056;2023-04-03T05:24:46;5.68;;;2.35;;
45232;SDS011;30969;51.052;17.056;2023-04-03T05:29:52;6.75;;;3.45;;
45232;SDS011;30969;51.052;17.056;2023-04-03T05:40:27;7.18;;;2.80;;
45232;SDS011;30969;51.052;17.056;2023-04-03T05:45:31;11.43;;;3.25;;
45232;SDS011;30969;51.052;17.056;2023-04-03T05:50:35;9.00;;;2.95;;
45232;SDS011;30969;51.052;17.056;2023-04-03T05:55:43;7.63;;;3.47;;
45232;SDS011;30969;51.052;17.056;2023-04-03T06:00:48;13.38;;;3.83;;
45232;SDS011;30969;51.052;17.056;2023-04-03T06:05:52;13.93;;;3.33;;
45232;SDS011;30969;51.052;17.056;2023-04-03T06:10:56;16.38;;;3.80;;
45232;SDS011;30969;51.052;17.056;2023-04-03T06:16:01;10.15;;;3.22;;
45232;SDS011;30969;51.052;17.056;2023-04-03T06:21:05;7.32;;;3.58;;
45232;SDS011;30969;51.052;17.056;2023-04-03T06:26:09;10.70;;;3.72;;
45232;SDS011;30969;51.052;17.056;2023-04-03T06:31:14;8.40;;;4.25;;
45232;SDS011;30969;51.052;17.056;2023-04-03T06:36:19;6.32;;;3.08;;
45232;SDS011;30969;51.052;17.056;2023-04-03T06:41:23;12.10;;;3.53;;
45232;SDS011;30969;51.052;17.056;2023-04-03T06:46:29;7.15;;;2.95;;
45232;SDS011;30969;51.052;17.056;2023-04-03T06:51:33;9.68;;;3.22;;
45232;SDS011;30969;51.052;17.056;2023-04-03T06:56:37;7.65;;;2.97;;
45232;SDS011;30969;51.052;17.056;2023-04-03T07:01:42;8.68;;;3.47;;
45232;SDS011;30969;51.052;17.056;2023-04-03T07:06:46;8.75;;;4.50;;
45232;SDS011;30969;51.052;17.056;2023-04-03T07:11:50;6.60;;;3.03;;
45232;SDS011;30969;51.052;17.056;2023-04-03T07:16:54;11.90;;;3.70;;
45232;SDS011;30969;51.052;17.056;2023-04-03T07:21:58;6.85;;;3.65;;
45232;SDS011;30969;51.052;17.056;2023-04-03T07:27:01;7.40;;;2.95;;
45232;SDS011;30969;51.052;17.056;2023-04-03T07:32:06;9.57;;;2.78;;
45232;SDS011;30969;51.052;17.056;2023-04-03T07:37:10;6.32;;;3.40;;
45232;SDS011;30969;51.052;17.056;2023-04-03T07:42:14;8.60;;;3.35;;
45232;SDS011;30969;51.052;17.056;2023-04-03T07:47:20;6.60;;;3.03;;
45232;SDS011;30969;51.052;17.056;2023-04-03T07:52:24;5.97;;;3.50;;
45232;SDS011;30969;51.052;17.056;2023-04-03T07:57:27;7.97;;;3.53;;
45232;SDS011;30969;51.052;17.056;2023-04-03T08:02:32;7.80;;;3.45;;
45232;SDS011;30969;51.052;17.056;2023-04-03T08:07:36;11.48;;;3.35;;
45232;SDS011;30969;51.052;17.056;2023-04-03T08:12:39;9.60;;;3.50;;
45232;SDS011;30969;51.052;17.056;2023-04-03T08:17:44;6.78;;;3.05;;
45232;SDS011;30969;51.052;17.056;2023-04-03T08:22:48;8.40;;;3.10;;
45232;SDS011;30969;51.052;17.056;2023-04-03T08:27:51;10.43;;;2.80;;
45232;SDS011;30969;51.052;17.056;2023-04-03T08:32:56;7.70;;;2.65;;
45232;SDS011;30969;51.052;17.056;2023-04-03T08:37:59;4.63;;;2.25;;
45232;SDS011;30969;51.052;17.056;2023-04-03T08:43:05;4.68;;;1.92;;
45232;SDS011;30969;51.052;17.056;2023-04-03T08:48:26;6.70;;;2.88;;
45232;SDS011;30969;51.052;17.056;2023-04-03T08:53:33;6.60;;;2.33;;
45232;SDS011;30969;51.052;17.056;2023-04-03T08:58:42;8.30;;;2.00;;
45232;SDS011;30969;51.052;17.056;2023-04-03T09:03:52;6.53;;;2.20;;
45232;SDS011;30969;51.052;17.056;2023-04-03T09:09:00;8.57;;;3.08;;
45232;SDS011;30969;51.052;17.056;2023-04-03T09:14:14;8.80;;;1.80;;
45232;SDS011;30969;51.052;17.056;2023-04-03T09:19:25;4.82;;;2.10;;
45232;SDS011;30969;51.052;17.056;2023-04-03T09:24:39;4.95;;;2.65;;
45232;SDS011;30969;51.052;17.056;2023-04-03T09:29:43;8.10;;;1.60;;
45232;SDS011;30969;51.052;17.056;2023-04-03T09:34:49;13.25;;;2.67;;
45232;SDS011;30969;51.052;17.056;2023-04-03T09:39:57;6.57;;;2.40;;
45232;SDS011;30969;51.052;17.056;2023-04-03T09:45:01;3.25;;;1.83;;
45232;SDS011;30969;51.052;17.056;2023-04-03T09:50:20;10.13;;;2.72;;
45232;SDS011;30969;51.052;17.056;2023-04-03T09:55:25;7.82;;;2.75;;
45232;SDS011;30969;51.052;17.056;2023-04-03T10:00:33;6.05;;;2.28;;
45232;SDS011;30969;51.052;17.056;2023-04-03T10:05:41;3.47;;;1.67;;
45232;SDS011;30969;51.052;17.056;2023-04-03T10:10:45;7.53;;;2.20;;
45232;SDS011;30969;51.052;17.056;2023-04-03T10:15:51;5.70;;;1.70;;
45232;SDS011;30969;51.052;17.056;2023-04-03T10:21:02;6.63;;;3.50;;
45232;SDS011;30969;51.052;17.056;2023-04-03T10:26:24;5.90;;;2.07;;
45232;SDS011;30969;51.052;17.056;2023-04-03T10:31:40;3.55;;;1.70;;
45232;SDS011;30969;51.052;17.056;2023-04-03T10:36:51;5.30;;;2.10;;
45232;SDS011;30969;51.052;17.056;2023-04-03T10:42:01;4.95;;;2.58;;
45232;SDS011;30969;51.052;17.056;2023-04-03T10:47:19;4.80;;;1.77;;
45232;SDS011;30969;51.052;17.056;2023-04-03T10:52:27;8.00;;;1.95;;
45232;SDS011;30969;51.052;17.056;2023-04-03T10:57:42;3.35;;;1.98;;
45232;SDS011;30969;51.052;17.056;2023-04-03T11:02:48;5.15;;;1.70;;
45232;SDS011;30969;51.052;17.056;2023-04-03T11:07:55;3.78;;;1.95;;
45232;SDS011;30969;51.052;17.056;2023-04-03T11:13:07;4.70;;;2.08;;
45232;SDS011;30969;51.052;17.056;2023-04-03T11:18:15;9.82;;;3.28;;
45232;SDS011;30969;51.052;17.056;2023-04-03T11:23:24;4.38;;;2.00;;
45232;SDS011;30969;51.052;17.056;2023-04-03T11:28:39;7.82;;;2.55;;
45232;SDS011;30969;51.052;17.056;2023-04-03T11:33:45;3.90;;;1.85;;
45232;SDS011;30969;51.052;17.056;2023-04-03T11:44:04;16.77;;;3.10;;
45232;SDS011;30969;51.052;17.056;2023-04-03T11:54:57;3.97;;;1.80;;
45232;SDS011;30969;51.052;17.056;2023-04-03T12:00:00;12.38;;;3.55;;
45232;SDS011;30969;51.052;17.056;2023-04-03T12:05:27;5.80;;;2.47;;
45232;SDS011;30969;51.052;17.056;2023-04-03T12:10:33;5.55;;;2.05;;
45232;SDS011;30969;51.052;17.056;2023-04-03T12:20:57;4.50;;;2.00;;
45232;SDS011;30969;51.052;17.056;2023-04-03T12:26:05;9.00;;;2.80;;
45232;SDS011;30969;51.052;17.056;2023-04-03T12:31:24;4.65;;;1.88;;
45232;SDS011;30969;51.052;17.056;2023-04-03T12:36:41;6.53;;;2.60;;
45232;SDS011;30969;51.052;17.056;2023-04-03T12:41:56;6.15;;;2.22;;
45232;SDS011;30969;51.052;17.056;2023-04-03T12:47:10;6.30;;;2.38;;
45232;SDS011;30969;51.052;17.056;2023-04-03T12:52:36;6.35;;;2.08;;
45232;SDS011;30969;51.052;17.056;2023-04-03T12:57:46;5.82;;;2.33;;
45232;SDS011;30969;51.052;17.056;2023-04-03T13:02:49;5.35;;;2.53;;
45232;SDS011;30969;51.052;17.056;2023-04-03T13:07:54;5.95;;;2.85;;
45232;SDS011;30969;51.052;17.056;2023-04-03T13:13:08;5.57;;;2.25;;
45232;SDS011;30969;51.052;17.056;2023-04-03T13:18:22;8.55;;;3.45;;
45232;SDS011;30969;51.052;17.056;2023-04-03T13:23:27;5.28;;;2.58;;
45232;SDS011;30969;51.052;17.056;2023-04-03T13:28:34;4.53;;;2.25;;
45232;SDS011;30969;51.052;17.056;2023-04-03T13:33:42;4.82;;;2.15;;
45232;SDS011;30969;51.052;17.056;2023-04-03T13:39:00;3.88;;;2.20;;
45232;SDS011;30969;51.052;17.056;2023-04-03T13:44:17;6.82;;;3.78;;
45232;SDS011;30969;51.052;17.056;2023-04-03T13:49:29;5.47;;;2.47;;
45232;SDS011;30969;51.052;17.056;2023-04-03T13:54:36;3.72;;;2.22;;
45232;SDS011;30969;51.052;17.056;2023-04-03T13:59:42;4.45;;;2.22;;
45232;SDS011;30969;51.052;17.056;2023-04-03T14:04:49;6.60;;;3.22;;
45232;SDS011;30969;51.052;17.056;2023-04-03T14:10:04;5.75;;;2.65;;
45232;SDS011;30969;51.052;17.056;2023-04-03T14:15:15;8.45;;;2.30;;
45232;SDS011;30969;51.052;17.056;2023-04-03T14:20:23;4.70;;;2.43;;
45232;SDS011;30969;51.052;17.056;2023-04-03T14:25:27;5.03;;;2.13;;
45232;SDS011;30969;51.052;17.056;2023-04-03T14:30:33;3.28;;;1.77;;
45232;SDS011;30969;51.052;17.056;2023-04-03T14:35:37;5.47;;;1.98;;
45232;SDS011;30969;51.052;17.056;2023-04-03T14:40:41;4.00;;;2.00;;
45232;SDS011;30969;51.052;17.056;2023-04-03T14:45:46;5.00;;;2.20;;
45232;SDS011;30969;51.052;17.056;2023-04-03T14:50:50;5.00;;;2.78;;
45232;SDS011;30969;51.052;17.056;2023-04-03T14:56:10;5.82;;;2.38;;
45232;SDS011;30969;51.052;17.056;2023-04-03T15:01:18;5.03;;;1.90;;
45232;SDS011;30969;51.052;17.056;2023-04-03T15:06:21;8.43;;;3.85;;
45232;SDS011;30969;51.052;17.056;2023-04-03T15:11:25;6.30;;;3.03;;
45232;SDS011;30969;51.052;17.056;2023-04-03T15:16:30;4.03;;;2.03;;
45232;SDS011;30969;51.052;17.056;2023-04-03T15:21:34;6.47;;;3.33;;
45232;SDS011;30969;51.052;17.056;2023-04-03T15:26:38;4.25;;;2.30;;
45232;SDS011;30969;51.052;17.056;2023-04-03T15:31:43;6.43;;;2.70;;
45232;SDS011;30969;51.052;17.056;2023-04-03T15:36:46;5.25;;;2.22;;
45232;SDS011;30969;51.052;17.056;2023-04-03T15:41:50;7.50;;;2.78;;
45232;SDS011;30969;51.052;17.056;2023-04-03T15:46:57;3.50;;;2.45;;
45232;SDS011;30969;51.052;17.056;2023-04-03T15:52:02;23.55;;;4.15;;
45232;SDS011;30969;51.052;17.056;2023-04-03T15:57:07;6.97;;;3.20;;
45232;SDS011;30969;51.052;17.056;2023-04-03T16:02:13;4.90;;;2.38;;
45232;SDS011;30969;51.052;17.056;2023-04-03T16:07:16;6.18;;;3.25;;
45232;SDS011;30969;51.052;17.056;2023-04-03T16:12:20;6.00;;;2.33;;
45232;SDS011;30969;51.052;17.056;2023-04-03T16:17:26;4.78;;;2.42;;
45232;SDS011;30969;51.052;17.056;2023-04-03T16:22:30;6.53;;;3.17;;
45232;SDS011;30969;51.052;17.056;2023-04-03T16:27:34;5.75;;;2.80;;
45232;SDS011;30969;51.052;17.056;2023-04-03T16:32:40;4.97;;;2.42;;
45232;SDS011;30969;51.052;17.056;2023-04-03T16:37:44;6.18;;;2.58;;
45232;SDS011;30969;51.052;17.056;2023-04-03T16:42:48;8.02;;;2.70;;
45232;SDS011;30969;51.052;17.056;2023-04-03T16:47:53;5.20;;;2.30;;
45232;SDS011;30969;51.052;17.056;2023-04-03T16:52:56;9.20;;;2.28;;
45232;SDS011;30969;51.052;17.056;2023-04-03T16:58:00;4.50;;;2.58;;
45232;SDS011;30969;51.052;17.056;2023-04-03T17:03:05;4.70;;;2.55;;
45232;SDS011;30969;51.052;17.056;2023-04-03T17:08:09;7.10;;;2.78;;
45232;SDS011;30969;51.052;17.056;2023-04-03T17:13:13;8.32;;;2.90;;
45232;SDS011;30969;51.052;17.056;2023-04-03T17:18:17;8.05;;;2.95;;
45232;SDS011;30969;51.052;17.056;2023-04-03T17:23:21;7.22;;;2.83;;
45232;SDS011;30969;51.052;17.056;2023-04-03T17:28:26;9.68;;;3.25;;
45232;SDS011;30969;51.052;17.056;2023-04-03T17:33:31;5.78;;;3.00;;
45232;SDS011;30969;51.052;17.056;2023-04-03T17:38:35;5.55;;;2.50;;
45232;SDS011;30969;51.052;17.056;2023-04-03T17:43:39;7.95;;;4.00;;
45232;SDS011;30969;51.052;17.056;2023-04-03T17:48:45;9.00;;;3.58;;
45232;SDS011;30969;51.052;17.056;2023-04-03T17:53:48;5.82;;;3.15;;
45232;SDS011;30969;51.052;17.056;2023-04-03T17:58:54;6.80;;;2.80;;
45232;SDS011;30969;51.052;17.056;2023-04-03T18:04:01;9.35;;;3.45;;
45232;SDS011;30969;51.052;17.056;2023-04-03T18:09:07;8.48;;;3.03;;
45232;SDS011;30969;51.052;17.056;2023-04-03T18:14:14;8.27;;;3.20;;
45232;SDS011;30969;51.052;17.056;2023-04-03T18:19:21;11.77;;;3.80;;
45232;SDS011;30969;51.052;17.056;2023-04-03T18:24:25;6.07;;;3.92;;
45232;SDS011;30969;51.052;17.056;2023-04-03T18:29:29;8.07;;;2.78;;
45232;SDS011;30969;51.052;17.056;2023-04-03T18:34:36;7.55;;;3.85;;
45232;SDS011;30969;51.052;17.056;2023-04-03T18:39:40;9.07;;;3.72;;
45232;SDS011;30969;51.052;17.056;2023-04-03T18:44:44;9.35;;;3.30;;
45232;SDS011;30969;51.052;17.056;2023-04-03T18:49:53;8.88;;;3.80;;
45232;SDS011;30969;51.052;17.056;2023-04-03T18:54:57;8.63;;;3.05;;
45232;SDS011;30969;51.052;17.056;2023-04-03T19:00:00;6.47;;;3.20;;
45232;SDS011;30969;51.052;17.056;2023-04-03T19:05:07;10.38;;;4.60;;
45232;SDS011;30969;51.052;17.056;2023-04-03T19:10:13;7.38;;;3.72;;
45232;SDS011;30969;51.052;17.056;2023-04-03T19:15:22;8.13;;;4.38;;
45232;SDS011;30969;51.052;17.056;2023-04-03T19:20:28;6.35;;;3.05;;
45232;SDS011;30969;51.052;17.056;2023-04-03T19:25:32;6.55;;;2.97;;
45232;SDS011;30969;51.052;17.056;2023-04-03T19:30:37;8.98;;;3.10;;
45232;SDS011;30969;51.052;17.056;2023-04-03T19:35:42;6.65;;;3.58;;
45232;SDS011;30969;51.052;17.056;2023-04-03T19:40:46;7.47;;;3.00;;
45232;SDS011;30969;51.052;17.056;2023-04-03T19:45:51;7.85;;;3.85;;
45232;SDS011;30969;51.052;17.056;2023-04-03T19:50:56;8.45;;;3.13;;
45232;SDS011;30969;51.052;17.056;2023-04-03T19:56:00;8.68;;;3.15;;
45232;SDS011;30969;51.052;17.056;2023-04-03T20:01:04;9.07;;;3.90;;
45232;SDS011;30969;51.052;17.056;2023-04-03T20:06:10;6.60;;;3.30;;
45232;SDS011;30969;51.052;17.056;2023-04-03T20:11:17;7.45;;;3.47;;
45232;SDS011;30969;51.052;17.056;2023-04-03T20:16:22;9.60;;;3.67;;
45232;SDS011;30969;51.052;17.056;2023-04-03T20:21:29;13.30;;;4.13;;
45232;SDS011;30969;51.052;17.056;2023-04-03T20:26:34;7.00;;;3.58;;
45232;SDS011;30969;51.052;17.056;2023-04-03T20:31:43;9.65;;;3.80;;
45232;SDS011;30969;51.052;17.056;2023-04-03T20:36:49;11.73;;;4.97;;
45232;SDS011;30969;51.052;17.056;2023-04-03T20:41:52;14.98;;;6.25;;
45232;SDS011;30969;51.052;17.056;2023-04-03T20:47:06;10.60;;;4.53;;
45232;SDS011;30969;51.052;17.056;2023-04-03T20:52:11;11.45;;;4.07;;
45232;SDS011;30969;51.052;17.056;2023-04-03T20:57:15;8.50;;;4.05;;
45232;SDS011;30969;51.052;17.056;2023-04-03T21:02:18;14.05;;;5.38;;
45232;SDS011;30969;51.052;17.056;2023-04-03T21:24:11;9.73;;;3.88;;
45232;SDS011;30969;51.052;17.056;2023-04-03T21:29:15;8.68;;;3.40;;
45232;SDS011;30969;51.052;17.056;2023-04-03T21:34:20;6.90;;;2.50;;
45232;SDS011;30969;51.052;17.056;2023-04-03T21:39:26;6.53;;;2.40;;
45232;SDS011;30969;51.052;17.056;2023-04-03T21:44:30;5.60;;;2.30;;
45232;SDS011;30969;51.052;17.056;2023-04-03T21:49:34;4.95;;;2.53;;
45232;SDS011;30969;51.052;17.056;2023-04-03T21:54:38;9.10;;;3.70;;
45232;SDS011;30969;51.052;17.056;2023-04-03T21:59:42;11.80;;;5.68;;
45232;SDS011;30969;51.052;17.056;2023-04-03T22:04:48;14.57;;;6.13;;
45232;SDS011;30969;51.052;17.056;2023-04-03T22:09:52;11.20;;;5.80;;
45232;SDS011;30969;51.052;17.056;2023-04-03T22:14:55;8.25;;;4.20;;
45232;SDS011;30969;51.052;17.056;2023-04-03T22:20:00;10.45;;;4.43;;
45232;SDS011;30969;51.052;17.056;2023-04-03T22:25:05;10.45;;;4.60;;
45232;SDS011;30969;51.052;17.056;2023-04-03T22:30:10;14.68;;;5.35;;
45232;SDS011;30969;51.052;17.056;2023-04-03T22:35:16;15.27;;;6.88;;
45232;SDS011;30969;51.052;17.056;2023-04-03T22:40:19;12.57;;;6.13;;
45232;SDS011;30969;51.052;17.056;2023-04-03T22:45:23;9.80;;;3.80;;
45232;SDS011;30969;51.052;17.056;2023-04-03T22:50:28;10.57;;;4.68;;
45232;SDS011;30969;51.052;17.056;2023-04-03T22:55:34;12.57;;;6.22;;
45232;SDS011;30969;51.052;17.056;2023-04-03T23:00:38;10.65;;;4.75;;
45232;SDS011;30969;51.052;17.056;2023-04-03T23:05:44;11.82;;;4.32;;
45232;SDS011;30969;51.052;17.056;2023-04-03T23:10:47;6.68;;;2.92;;
45232;SDS011;30969;51.052;17.056;2023-04-03T23:15:51;6.15;;;3.22;;
45232;SDS011;30969;51.052;17.056;2023-04-03T23:20:57;8.88;;;3.72;;
45232;SDS011;30969;51.052;17.056;2023-04-03T23:26:01;7.18;;;3.42;;
45232;SDS011;30969;51.052;17.056;2023-04-03T23:31:04;8.88;;;3.00;;
45232;SDS011;30969;51.052;17.056;2023-04-03T23:36:10;8.50;;;3.42;;
45232;SDS011;30969;51.052;17.056;2023-04-03T23:41:16;6.32;;;2.67;;
45232;SDS011;30969;51.052;17.056;2023-04-03T23:46:20;8.25;;;2.72;;
45232;SDS011;30969;51.052;17.056;2023-04-03T23:51:25;8.23;;;3.28;;
45232;SDS011;30969;51.052;17.056;2023-04-03T23:56:28;8.70;;;3.00;;
